Time;durP1;ratioP1;P1;durP2;ratioP2;P2;SDS_P1;SDS_P2;PMS_P1;PMS_P2;Temp;Humidity;BMP_temperature;BMP_pressure;BME280_temperature;BME280_humidity;BME280_pressure;Samples;Min_cycle;Max_cycle;Signal;HPM_P1;HPM_P2
2023/06/01 00:01:01;;;;;;;12.38;5.65;;;;;;;;;;8369129;28;20041;-85
2023/06/01 00:05:20;;;;;;;11.32;5.22;;;;;;;;;;8369004;28;20045;-91
2023/06/01 00:09:23;;;;;;;7.43;4.80;;;;;;;;;;8368839;28;20057;-86
2023/06/01 00:13:26;;;;;;;18.50;6.20;;;;;;;;;;8369617;28;20573;-86
2023/06/01 00:17:34;;;;;;;9.63;5.07;;;;;;;;;;8370082;28;20053;-89
2023/06/01 00:21:39;;;;;;;11.88;5.60;;;;;;;;;;8368437;28;20048;-87
2023/06/01 00:25:41;;;;;;;10.55;5.82;;;;;;;;;;8368024;28;20098;-87
2023/06/01 00:29:44;;;;;;;12.45;5.43;;;;;;;;;;8367803;28;20041;-85
2023/06/01 00:33:47;;;;;;;10.77;5.30;;;;;;;;;;8366912;28;20044;-86
2023/06/01 00:37:51;;;;;;;10.57;5.43;;;;;;;;;;8366902;28;20470;-86
2023/06/01 00:41:54;;;;;;;9.63;5.28;;;;;;;;;;8366750;28;20049;-84
2023/06/01 00:45:57;;;;;;;11.55;5.25;;;;;;;;;;8366106;28;20480;-85
2023/06/01 00:50:00;;;;;;;9.20;5.10;;;;;;;;;;8372373;28;20419;-87
2023/06/01 00:54:05;;;;;;;9.80;5.10;;;;;;;;;;8400114;28;20044;-86
2023/06/01 00:58:08;;;;;;;10.45;4.93;;;;;;;;;;8399838;28;20076;-85
2023/06/01 01:02:15;;;;;;;12.73;5.25;;;;;;;;;;8399809;28;20072;-90
2023/06/01 01:06:26;;;;;;;15.30;5.97;;;;;;;;;;8399538;28;20056;-85
2023/06/01 01:10:34;;;;;;;9.65;5.22;;;;;;;;;;8398990;28;20047;-84
2023/06/01 01:14:44;;;;;;;12.15;5.60;;;;;;;;;;8398473;28;20066;-84
2023/06/01 01:18:54;;;;;;;12.35;5.00;;;;;;;;;;8398587;28;20055;-85
2023/06/01 01:23:09;;;;;;;10.75;5.35;;;;;;;;;;8398537;28;20040;-88
2023/06/01 01:27:25;;;;;;;14.55;4.93;;;;;;;;;;8398436;28;20045;-85
2023/06/01 01:31:31;;;;;;;10.10;5.10;;;;;;;;;;8398365;28;20045;-85
2023/06/01 01:35:35;;;;;;;12.93;5.85;;;;;;;;;;8397479;28;20048;-86
2023/06/01 01:39:37;;;;;;;13.48;5.15;;;;;;;;;;8397532;28;20048;-84
2023/06/01 01:43:41;;;;;;;7.13;4.80;;;;;;;;;;8397574;28;20041;-83
2023/06/01 01:47:54;;;;;;;9.82;5.40;;;;;;;;;;8397328;28;20097;-85
2023/06/01 01:52:06;;;;;;;9.40;5.10;;;;;;;;;;8397274;28;20059;-91
2023/06/01 01:56:10;;;;;;;15.05;6.10;;;;;;;;;;8397364;28;20479;-86
2023/06/01 02:00:14;;;;;;;10.50;5.25;;;;;;;;;;8397248;28;20543;-86
2023/06/01 02:04:18;;;;;;;10.63;5.25;;;;;;;;;;8396973;28;20131;-84
2023/06/01 02:08:21;;;;;;;11.00;5.13;;;;;;;;;;8397245;28;20055;-93
2023/06/01 02:12:24;;;;;;;9.55;5.75;;;;;;;;;;8398079;28;20503;-86
2023/06/01 02:16:26;;;;;;;11.48;5.38;;;;;;;;;;8397002;28;20046;-86
2023/06/01 02:20:31;;;;;;;10.80;5.78;;;;;;;;;;8392852;28;20072;-87
2023/06/01 02:24:34;;;;;;;13.93;6.22;;;;;;;;;;8397162;28;20135;-91
2023/06/01 02:28:40;;;;;;;23.17;8.40;;;;;;;;;;8378699;28;20052;-86
2023/06/01 02:32:45;;;;;;;26.20;10.52;;;;;;;;;;8384781;28;20041;-85
2023/06/01 02:36:55;;;;;;;17.92;6.93;;;;;;;;;;8385316;28;20048;-86
2023/06/01 02:41:01;;;;;;;20.63;8.68;;;;;;;;;;8386892;28;20415;-93
2023/06/01 02:45:04;;;;;;;16.58;7.03;;;;;;;;;;8395299;28;20040;-86
2023/06/01 02:49:07;;;;;;;11.30;5.47;;;;;;;;;;8381784;28;20514;-85
2023/06/01 02:53:11;;;;;;;9.85;5.25;;;;;;;;;;8392403;28;20048;-86
2023/06/01 02:57:16;;;;;;;9.77;5.60;;;;;;;;;;8393660;28;20131;-85
2023/06/01 03:01:20;;;;;;;10.90;5.20;;;;;;;;;;8396633;28;20044;-85
2023/06/01 03:05:23;;;;;;;9.73;4.35;;;;;;;;;;8397261;28;20045;-84
2023/06/01 03:09:30;;;;;;;11.32;5.72;;;;;;;;;;8365582;28;20596;-86
2023/06/01 03:13:33;;;;;;;8.38;4.07;;;;;;;;;;8378853;28;20052;-87
2023/06/01 03:17:39;;;;;;;8.00;4.95;;;;;;;;;;8397273;28;20105;-92
2023/06/01 03:21:42;;;;;;;7.95;5.07;;;;;;;;;;8380583;28;20049;-85
2023/06/01 03:25:47;;;;;;;7.07;3.80;;;;;;;;;;8390019;28;20054;-85
2023/06/01 03:29:50;;;;;;;9.25;4.38;;;;;;;;;;8379034;28;20051;-85
2023/06/01 03:33:52;;;;;;;8.05;4.70;;;;;;;;;;8385205;28;20370;-85
2023/06/01 03:37:55;;;;;;;8.05;4.20;;;;;;;;;;8392794;28;20072;-92
2023/06/01 03:42:00;;;;;;;7.18;4.10;;;;;;;;;;8387109;28;20079;-91
2023/06/01 03:46:03;;;;;;;7.18;3.97;;;;;;;;;;8377271;28;20174;-86
2023/06/01 03:50:08;;;;;;;8.43;3.90;;;;;;;;;;8384187;28;20074;-87
2023/06/01 03:54:11;;;;;;;8.93;4.70;;;;;;;;;;8390593;28;20098;-89
2023/06/01 03:58:15;;;;;;;8.23;4.38;;;;;;;;;;8404917;28;20097;-86
2023/06/01 04:02:19;;;;;;;9.00;4.22;;;;;;;;;;8404205;28;20506;-86
2023/06/01 04:06:23;;;;;;;8.45;4.25;;;;;;;;;;8400734;28;20904;-87
2023/06/01 04:10:26;;;;;;;8.07;4.20;;;;;;;;;;8400656;28;20045;-87
2023/06/01 04:14:31;;;;;;;6.43;3.75;;;;;;;;;;8401247;28;20051;-91
2023/06/01 04:18:34;;;;;;;8.48;4.60;;;;;;;;;;8401139;28;20040;-90
2023/06/01 04:22:37;;;;;;;9.05;4.38;;;;;;;;;;8400972;28;20114;-86
2023/06/01 04:26:40;;;;;;;10.82;4.20;;;;;;;;;;8400502;28;20048;-91
2023/06/01 04:30:47;;;;;;;7.28;3.75;;;;;;;;;;8400477;28;20040;-88
2023/06/01 04:34:50;;;;;;;8.20;4.50;;;;;;;;;;8400367;28;20033;-86
2023/06/01 04:38:54;;;;;;;18.52;8.48;;;;;;;;;;8400042;28;20049;-86
2023/06/01 04:42:57;;;;;;;8.48;4.20;;;;;;;;;;8400212;28;20518;-90
2023/06/01 04:47:03;;;;;;;8.75;5.07;;;;;;;;;;8400053;28;20045;-88
2023/06/01 04:51:07;;;;;;;8.57;4.40;;;;;;;;;;8399001;28;20078;-89
2023/06/01 04:55:12;;;;;;;7.88;4.43;;;;;;;;;;8400396;28;20044;-88
2023/06/01 04:59:15;;;;;;;6.47;3.30;;;;;;;;;;8375448;28;20404;-89
2023/06/01 05:03:23;;;;;;;9.98;2.95;;;;;;;;;;8399542;28;20123;-90
2023/06/01 05:07:26;;;;;;;8.57;4.25;;;;;;;;;;8375840;28;20052;-89
2023/06/01 05:11:32;;;;;;;7.28;3.65;;;;;;;;;;8397723;28;20052;-90
2023/06/01 05:15:36;;;;;;;16.65;7.95;;;;;;;;;;8390706;28;20139;-90
2023/06/01 05:24:03;;;;;;;7.95;3.42;;;;;;;;;;8380157;28;20040;-90
2023/06/01 05:28:10;;;;;;;9.02;3.40;;;;;;;;;;8400984;28;20168;-90
2023/06/01 05:32:14;;;;;;;6.25;3.10;;;;;;;;;;8400428;28;20048;-91
2023/06/01 05:36:19;;;;;;;9.05;3.25;;;;;;;;;;8379148;28;20052;-90
2023/06/01 05:40:23;;;;;;;9.60;3.25;;;;;;;;;;8391371;28;20072;-90
2023/06/01 05:44:26;;;;;;;7.20;3.30;;;;;;;;;;8391134;28;20044;-92
2023/06/01 05:48:30;;;;;;;6.75;3.40;;;;;;;;;;8403736;28;20051;-94
2023/06/01 05:52:42;;;;;;;8.60;3.13;;;;;;;;;;8398956;28;20057;-95
2023/06/01 05:56:45;;;;;;;7.07;3.00;;;;;;;;;;8399727;28;20123;-90
2023/06/01 06:00:48;;;;;;;8.85;3.00;;;;;;;;;;8384005;28;20071;-90
2023/06/01 06:04:58;;;;;;;8.73;3.35;;;;;;;;;;8404111;28;20049;-92
2023/06/01 06:09:07;;;;;;;6.20;3.33;;;;;;;;;;8398727;28;20044;-91
2023/06/01 06:13:10;;;;;;;6.35;3.03;;;;;;;;;;8370199;28;20097;-90
2023/06/01 06:17:13;;;;;;;8.18;3.10;;;;;;;;;;8399631;28;20127;-90
2023/06/01 06:21:17;;;;;;;6.95;3.03;;;;;;;;;;8399084;28;20126;-89
2023/06/01 06:25:22;;;;;;;5.28;3.00;;;;;;;;;;8399651;28;20143;-90
2023/06/01 06:29:25;;;;;;;5.72;3.22;;;;;;;;;;8398166;28;20484;-91
2023/06/01 06:33:31;;;;;;;8.77;3.15;;;;;;;;;;8399037;28;20067;-89
2023/06/01 06:37:34;;;;;;;7.13;2.80;;;;;;;;;;8398669;28;20109;-94
2023/06/01 06:41:38;;;;;;;5.90;2.83;;;;;;;;;;8398386;28;20123;-91
2023/06/01 06:45:41;;;;;;;6.70;2.97;;;;;;;;;;8398637;28;20036;-89
2023/06/01 06:49:47;;;;;;;6.78;2.92;;;;;;;;;;8388480;28;20048;-90
2023/06/01 06:53:50;;;;;;;5.47;3.00;;;;;;;;;;8374622;28;20522;-89
2023/06/01 06:57:55;;;;;;;8.65;3.42;;;;;;;;;;8393549;28;20064;-89
2023/06/01 07:02:00;;;;;;;7.88;2.88;;;;;;;;;;8391342;28;20065;-89
2023/06/01 07:06:03;;;;;;;6.40;2.78;;;;;;;;;;8389143;28;20596;-89
2023/06/01 07:10:17;;;;;;;6.50;2.80;;;;;;;;;;8396949;28;20052;-91
2023/06/01 07:14:22;;;;;;;6.57;2.90;;;;;;;;;;8441499;22;20146;-91
2023/06/01 07:18:28;;;;;;;10.45;3.10;;;;;;;;;;8382217;28;20051;-91
2023/06/01 07:22:33;;;;;;;6.88;2.50;;;;;;;;;;8385343;28;20056;-90
2023/06/01 07:26:38;;;;;;;5.50;2.45;;;;;;;;;;8382345;28;20036;-91
2023/06/01 07:30:49;;;;;;;7.78;2.28;;;;;;;;;;8384978;28;20067;-91
2023/06/01 07:34:57;;;;;;;7.13;2.83;;;;;;;;;;8370637;28;20068;-89
2023/06/01 07:39:02;;;;;;;5.18;2.20;;;;;;;;;;8381098;28;20068;-90
2023/06/01 07:43:14;;;;;;;6.65;2.75;;;;;;;;;;8371672;28;20045;-91
2023/06/01 07:47:19;;;;;;;3.63;2.20;;;;;;;;;;8385188;28;20135;-90
2023/06/01 07:51:28;;;;;;;3.50;2.20;;;;;;;;;;8387907;28;20060;-91
2023/06/01 07:55:32;;;;;;;5.13;2.45;;;;;;;;;;8385686;28;20461;-92
2023/06/01 07:59:39;;;;;;;6.72;2.40;;;;;;;;;;8391268;28;20397;-91
2023/06/01 08:03:48;;;;;;;8.32;2.20;;;;;;;;;;8384170;28;20048;-92
2023/06/01 08:07:56;;;;;;;5.25;2.28;;;;;;;;;;8379641;28;20044;-90
2023/06/01 08:11:59;;;;;;;4.47;2.13;;;;;;;;;;8386850;28;20053;-89
2023/06/01 08:16:03;;;;;;;4.88;2.47;;;;;;;;;;8378483;28;20639;-89
2023/06/01 08:20:21;;;;;;;5.30;2.30;;;;;;;;;;8383610;22;20525;-90
2023/06/01 08:24:28;;;;;;;4.28;2.38;;;;;;;;;;8355418;28;20122;-90
2023/06/01 08:28:38;;;;;;;8.07;2.47;;;;;;;;;;8341170;28;20121;-90
2023/06/01 08:32:44;;;;;;;7.53;2.78;;;;;;;;;;8347682;28;20412;-91
2023/06/01 08:36:59;;;;;;;4.45;2.00;;;;;;;;;;8357334;28;20412;-91
2023/06/01 08:41:10;;;;;;;7.63;2.47;;;;;;;;;;8354986;28;20037;-89
2023/06/01 08:45:16;;;;;;;5.55;2.70;;;;;;;;;;8344102;28;20569;-92
2023/06/01 08:49:23;;;;;;;13.68;2.70;;;;;;;;;;8321285;28;20140;-90
2023/06/01 08:53:31;;;;;;;4.60;2.30;;;;;;;;;;8390232;22;20139;-90
2023/06/01 08:57:34;;;;;;;4.75;2.30;;;;;;;;;;8365651;28;20602;-89
2023/06/01 09:01:42;;;;;;;7.28;2.60;;;;;;;;;;8380950;28;20499;-91
2023/06/01 09:05:45;;;;;;;4.95;2.53;;;;;;;;;;8385154;28;20112;-90
2023/06/01 09:09:57;;;;;;;4.05;2.17;;;;;;;;;;8377811;28;20668;-90
2023/06/01 09:14:00;;;;;;;5.03;2.85;;;;;;;;;;8386849;28;20056;-90
2023/06/01 09:18:12;;;;;;;7.38;2.03;;;;;;;;;;8388539;28;20083;-91
2023/06/01 09:22:15;;;;;;;8.30;2.30;;;;;;;;;;8378142;28;20048;-91
2023/06/01 09:26:29;;;;;;;4.95;2.25;;;;;;;;;;8387364;28;20044;-89
2023/06/01 09:30:45;;;;;;;4.25;2.22;;;;;;;;;;8375283;28;20052;-89
2023/06/01 09:34:51;;;;;;;7.05;2.53;;;;;;;;;;8369909;28;20102;-90
2023/06/01 09:39:04;;;;;;;3.25;2.10;;;;;;;;;;8367356;28;20125;-91
2023/06/01 09:43:25;;;;;;;9.75;2.42;;;;;;;;;;8385309;28;20144;-90
2023/06/01 09:47:32;;;;;;;3.95;2.20;;;;;;;;;;8386186;28;20057;-90
2023/06/01 09:51:36;;;;;;;5.82;2.40;;;;;;;;;;8390516;28;20079;-90
2023/06/01 09:56:01;;;;;;;6.75;2.47;;;;;;;;;;8393685;28;20043;-90
2023/06/01 10:00:24;;;;;;;3.70;2.00;;;;;;;;;;8382319;28;20551;-89
2023/06/01 10:04:31;;;;;;;4.32;2.40;;;;;;;;;;8377096;28;20102;-91
2023/06/01 10:08:39;;;;;;;8.35;2.90;;;;;;;;;;8378752;28;20078;-91
2023/06/01 10:12:45;;;;;;;4.07;2.20;;;;;;;;;;8389508;28;20080;-92
2023/06/01 10:16:51;;;;;;;4.65;2.28;;;;;;;;;;8377778;28;20576;-89
2023/06/01 10:20:55;;;;;;;6.57;2.85;;;;;;;;;;8377955;28;20045;-90
2023/06/01 10:25:04;;;;;;;7.32;2.60;;;;;;;;;;8383191;28;20101;-92
2023/06/01 10:29:08;;;;;;;5.60;2.50;;;;;;;;;;8377350;28;20064;-89
2023/06/01 10:33:17;;;;;;;4.45;2.22;;;;;;;;;;8369793;28;20052;-89
2023/06/01 10:37:19;;;;;;;7.55;2.40;;;;;;;;;;8375415;28;20049;-90
2023/06/01 10:41:31;;;;;;;5.88;2.20;;;;;;;;;;8382265;28;20045;-88
2023/06/01 10:45:39;;;;;;;4.40;2.20;;;;;;;;;;8376431;28;20056;-88
2023/06/01 10:50:09;;;;;;;7.15;2.22;;;;;;;;;;8370835;28;20094;-89
2023/06/01 10:54:39;;;;;;;6.15;2.45;;;;;;;;;;8316833;28;20514;-90
2023/06/01 10:59:13;;;;;;;7.67;2.60;;;;;;;;;;8302777;28;20068;-89
2023/06/01 11:03:19;;;;;;;7.03;3.08;;;;;;;;;;8324254;28;20102;-89
2023/06/01 11:07:52;;;;;;;5.43;2.17;;;;;;;;;;8316722;28;20057;-88
2023/06/01 11:12:04;;;;;;;4.82;2.38;;;;;;;;;;8290934;28;20074;-88
2023/06/01 11:16:33;;;;;;;7.75;2.33;;;;;;;;;;8317436;28;20053;-89
2023/06/01 11:20:49;;;;;;;6.40;2.20;;;;;;;;;;8314579;28;20042;-89
2023/06/01 11:25:04;;;;;;;11.38;2.80;;;;;;;;;;8342337;28;20456;-90
2023/06/01 11:29:25;;;;;;;8.48;2.20;;;;;;;;;;8319192;28;20057;-89
2023/06/01 11:33:31;;;;;;;;;;;;;;;;;;8318684;28;20414;-89
2023/06/01 11:37:34;;;;;;;6.75;2.25;;;;;;;;;;8321007;28;20407;-89
2023/06/01 11:41:40;;;;;;;4.93;1.90;;;;;;;;;;8304600;28;20405;-89
2023/06/01 11:45:45;;;;;;;5.55;2.00;;;;;;;;;;8305556;28;20052;-88
2023/06/01 11:49:55;;;;;;;4.38;2.05;;;;;;;;;;8338619;28;20076;-89
2023/06/01 11:53:58;;;;;;;3.88;2.10;;;;;;;;;;8380819;28;20056;-89
2023/06/01 11:58:03;;;;;;;5.65;2.10;;;;;;;;;;8389394;28;20056;-89
2023/06/01 12:02:24;;;;;;;4.63;1.90;;;;;;;;;;8388299;28;20056;-90
2023/06/01 12:06:27;;;;;;;4.65;2.17;;;;;;;;;;8387555;28;20041;-91
2023/06/01 12:10:30;;;;;;;7.00;2.35;;;;;;;;;;8382200;28;20124;-90
2023/06/01 12:14:38;;;;;;;3.45;2.00;;;;;;;;;;8407422;28;20055;-91
2023/06/01 12:18:41;;;;;;;5.57;2.10;;;;;;;;;;8373666;28;20481;-92
2023/06/01 12:22:44;;;;;;;3.45;2.10;;;;;;;;;;8381647;28;20133;-90
2023/06/01 12:26:50;;;;;;;3.85;2.00;;;;;;;;;;8388329;28;20134;-90
2023/06/01 12:31:12;;;;;;;4.38;2.20;;;;;;;;;;8372159;28;20738;-89
2023/06/01 12:35:18;;;;;;;4.80;1.98;;;;;;;;;;8389720;28;20045;-90
2023/06/01 12:39:36;;;;;;;3.78;2.22;;;;;;;;;;8381026;28;20057;-90
2023/06/01 12:43:40;;;;;;;6.10;2.17;;;;;;;;;;8398218;28;20718;-90
2023/06/01 12:47:44;;;;;;;5.50;2.20;;;;;;;;;;8372991;28;20043;-90
2023/06/01 12:51:48;;;;;;;5.80;2.17;;;;;;;;;;8384307;28;20532;-89
2023/06/01 12:55:51;;;;;;;5.03;2.45;;;;;;;;;;8386941;28;20049;-90
2023/06/01 12:59:55;;;;;;;4.07;2.13;;;;;;;;;;8389607;28;20056;-91
2023/06/01 13:04:03;;;;;;;3.88;2.35;;;;;;;;;;8384998;28;20049;-90
2023/06/01 13:08:08;;;;;;;4.95;2.30;;;;;;;;;;8391423;28;20138;-92
2023/06/01 13:12:17;;;;;;;4.80;2.38;;;;;;;;;;8384013;28;20115;-91
2023/06/01 13:16:28;;;;;;;4.35;2.38;;;;;;;;;;8374335;28;20484;-90
2023/06/01 13:20:36;;;;;;;10.68;3.05;;;;;;;;;;8385110;28;20060;-90
2023/06/01 13:24:45;;;;;;;5.63;2.33;;;;;;;;;;8388336;28;20048;-90
2023/06/01 13:28:49;;;;;;;4.25;2.28;;;;;;;;;;8385800;28;20181;-89
2023/06/01 13:33:02;;;;;;;5.22;2.30;;;;;;;;;;8389529;28;20052;-90
2023/06/01 13:37:09;;;;;;;2.92;2.10;;;;;;;;;;8371914;28;20059;-90
2023/06/01 13:41:17;;;;;;;5.32;2.22;;;;;;;;;;8386277;28;20052;-91
2023/06/01 13:45:25;;;;;;;7.75;2.40;;;;;;;;;;8384932;28;20048;-91
2023/06/01 13:49:42;;;;;;;4.70;2.70;;;;;;;;;;8375374;28;20088;-90
2023/06/01 13:53:52;;;;;;;6.38;2.70;;;;;;;;;;8396098;28;20060;-89
2023/06/01 13:58:04;;;;;;;4.10;2.53;;;;;;;;;;8403559;28;20052;-90
2023/06/01 14:02:23;;;;;;;5.18;2.38;;;;;;;;;;8370218;28;20701;-89
2023/06/01 14:06:34;;;;;;;6.13;2.15;;;;;;;;;;8388341;28;20048;-90
2023/06/01 14:10:40;;;;;;;6.65;2.63;;;;;;;;;;8399289;28;20100;-88
2023/06/01 14:14:44;;;;;;;4.30;2.40;;;;;;;;;;8380308;28;20044;-92
2023/06/01 14:18:47;;;;;;;4.97;2.40;;;;;;;;;;8376008;28;20056;-89
2023/06/01 14:27:30;;;;;;;7.18;2.33;;;;;;;;;;8382156;28;20056;-90
2023/06/01 14:31:49;;;;;;;6.32;2.30;;;;;;;;;;8379386;28;20174;-90
2023/06/01 14:35:57;;;;;;;4.22;2.72;;;;;;;;;;8364964;28;20052;-90
2023/06/01 14:40:06;;;;;;;4.90;2.38;;;;;;;;;;8380662;28;20068;-90
2023/06/01 14:44:28;;;;;;;4.32;2.47;;;;;;;;;;8377005;28;20045;-93
2023/06/01 14:48:39;;;;;;;5.00;2.55;;;;;;;;;;8376642;28;20057;-91
2023/06/01 14:52:44;;;;;;;10.73;2.60;;;;;;;;;;8376052;28;20088;-88
2023/06/01 14:56:54;;;;;;;6.38;2.30;;;;;;;;;;8394131;28;20058;-90
2023/06/01 15:00:59;;;;;;;6.28;2.78;;;;;;;;;;8406312;22;20139;-89
2023/06/01 15:05:08;;;;;;;7.15;2.78;;;;;;;;;;8400704;28;20043;-89
2023/06/01 15:09:13;;;;;;;5.05;2.60;;;;;;;;;;8427495;28;20044;-89
2023/06/01 15:13:32;;;;;;;7.32;2.58;;;;;;;;;;8417659;28;20053;-88
2023/06/01 15:17:39;;;;;;;8.27;2.33;;;;;;;;;;8420834;28;20048;-89
2023/06/01 15:21:42;;;;;;;3.88;2.40;;;;;;;;;;8405210;28;20041;-89
2023/06/01 15:30:08;;;;;;;5.05;2.28;;;;;;;;;;8416060;28;20454;-92
2023/06/01 15:34:14;;;;;;;3.75;2.30;;;;;;;;;;8431857;28;20059;-89
2023/06/01 15:38:17;;;;;;;5.13;2.30;;;;;;;;;;8419435;28;20488;-89
2023/06/01 15:42:23;;;;;;;7.15;3.00;;;;;;;;;;8425009;28;20035;-89
2023/06/01 15:46:27;;;;;;;5.60;2.40;;;;;;;;;;8433114;28;20048;-90
2023/06/01 15:50:32;;;;;;;6.03;2.60;;;;;;;;;;8423100;28;20044;-94
2023/06/01 15:54:37;;;;;;;7.90;2.80;;;;;;;;;;8422677;28;20060;-90
2023/06/01 15:58:42;;;;;;;3.80;2.22;;;;;;;;;;8400012;28;20047;-90
2023/06/01 16:03:01;;;;;;;5.97;2.45;;;;;;;;;;8427040;28;20060;-90
2023/06/01 16:07:10;;;;;;;5.63;2.28;;;;;;;;;;8411798;28;20063;-89
2023/06/01 16:15:32;;;;;;;5.75;2.45;;;;;;;;;;8437808;28;20104;-91
2023/06/01 16:19:35;;;;;;;6.18;2.35;;;;;;;;;;8429884;28;20070;-90
2023/06/01 16:23:42;;;;;;;5.82;2.90;;;;;;;;;;8429447;28;20032;-89
2023/06/01 16:27:45;;;;;;;4.55;2.53;;;;;;;;;;8447712;28;20395;-89
2023/06/01 16:36:08;;;;;;;8.25;2.72;;;;;;;;;;8436510;28;20542;-89
2023/06/01 16:40:13;;;;;;;4.85;2.30;;;;;;;;;;8438835;28;20108;-88
2023/06/01 16:44:16;;;;;;;6.97;2.90;;;;;;;;;;8432353;28;20123;-88
2023/06/01 16:48:19;;;;;;;6.03;2.42;;;;;;;;;;8439487;28;20075;-90
2023/06/01 16:52:22;;;;;;;5.00;2.15;;;;;;;;;;8439696;28;20115;-89
2023/06/01 16:56:27;;;;;;;4.65;2.60;;;;;;;;;;8416435;28;20403;-88
2023/06/01 17:00:30;;;;;;;8.13;3.83;;;;;;;;;;8440916;28;20071;-89
2023/06/01 17:04:34;;;;;;;8.93;3.47;;;;;;;;;;8416590;28;20047;-89
2023/06/01 17:08:37;;;;;;;9.82;5.05;;;;;;;;;;8435017;28;20118;-89
2023/06/01 17:12:45;;;;;;;14.98;5.80;;;;;;;;;;8413741;28;20040;-89
2023/06/01 17:16:48;;;;;;;20.25;5.72;;;;;;;;;;8413405;28;20123;-90
2023/06/01 17:20:53;;;;;;;9.80;4.15;;;;;;;;;;8420642;28;20043;-88
2023/06/01 17:24:56;;;;;;;9.20;4.00;;;;;;;;;;8421343;28;20063;-88
2023/06/01 17:29:03;;;;;;;23.30;6.63;;;;;;;;;;8414135;28;20040;-86
2023/06/01 17:33:07;;;;;;;9.95;4.50;;;;;;;;;;8417840;28;20578;-89
2023/06/01 17:37:10;;;;;;;7.72;3.72;;;;;;;;;;8420604;28;20040;-89
2023/06/01 17:41:13;;;;;;;10.15;3.42;;;;;;;;;;8423487;28;20458;-87
2023/06/01 17:45:18;;;;;;;6.15;2.90;;;;;;;;;;8418714;28;20464;-87
2023/06/01 17:49:21;;;;;;;10.55;3.45;;;;;;;;;;8421486;28;20059;-89
2023/06/01 17:53:24;;;;;;;8.15;3.58;;;;;;;;;;8406132;28;20075;-88
2023/06/01 17:57:27;;;;;;;10.50;3.55;;;;;;;;;;8439504;28;20068;-88
2023/06/01 18:01:32;;;;;;;6.53;3.38;;;;;;;;;;8393991;28;20561;-96
2023/06/01 18:05:35;;;;;;;11.93;5.82;;;;;;;;;;8419181;28;20104;-90
2023/06/01 18:09:38;;;;;;;7.90;4.63;;;;;;;;;;8398916;28;20140;-88
2023/06/01 18:13:44;;;;;;;6.47;2.75;;;;;;;;;;8412051;28;20075;-88
2023/06/01 18:17:48;;;;;;;7.03;3.22;;;;;;;;;;8418062;28;20039;-88
2023/06/01 18:21:54;;;;;;;5.32;2.47;;;;;;;;;;8422722;28;20492;-87
2023/06/01 18:26:00;;;;;;;4.82;3.08;;;;;;;;;;8428197;28;20391;-91
2023/06/01 18:30:03;;;;;;;7.47;4.47;;;;;;;;;;8416949;28;20399;-92
2023/06/01 18:34:12;;;;;;;8.30;3.45;;;;;;;;;;8403377;28;20563;-93
2023/06/01 18:38:18;;;;;;;6.15;4.60;;;;;;;;;;8382743;28;20048;-88
2023/06/01 18:42:22;;;;;;;6.30;4.57;;;;;;;;;;8383485;28;20052;-93
2023/06/01 18:46:25;;;;;;;9.43;4.65;;;;;;;;;;8409635;28;20048;-87
2023/06/01 18:50:34;;;;;;;8.18;4.70;;;;;;;;;;8406036;28;20399;-88
2023/06/01 18:54:37;;;;;;;9.07;4.68;;;;;;;;;;8412669;28;20074;-87
2023/06/01 18:58:42;;;;;;;14.18;5.53;;;;;;;;;;8428148;28;20052;-89
2023/06/01 19:02:47;;;;;;;10.02;5.40;;;;;;;;;;8435862;28;20104;-88
2023/06/01 19:06:53;;;;;;;10.32;5.30;;;;;;;;;;8439778;28;20047;-85
2023/06/01 19:11:03;;;;;;;10.02;5.85;;;;;;;;;;8416254;28;20040;-87
2023/06/01 19:15:09;;;;;;;21.73;8.80;;;;;;;;;;8430465;28;20127;-94
2023/06/01 19:19:13;;;;;;;41.78;16.02;;;;;;;;;;8432051;28;20040;-88
2023/06/01 19:23:17;;;;;;;55.35;17.38;;;;;;;;;;8415778;28;20794;-87
2023/06/01 19:27:20;;;;;;;28.52;9.98;;;;;;;;;;8413544;28;20461;-87
2023/06/01 19:31:25;;;;;;;17.60;7.57;;;;;;;;;;8433317;28;20061;-86
2023/06/01 19:35:29;;;;;;;10.20;4.78;;;;;;;;;;8426956;28;20075;-87
2023/06/01 19:39:42;;;;;;;8.68;4.53;;;;;;;;;;8410825;28;20044;-88
2023/06/01 19:43:46;;;;;;;29.88;12.15;;;;;;;;;;8434555;28;20062;-87
2023/06/01 19:47:49;;;;;;;14.90;6.28;;;;;;;;;;8431512;28;20542;-87
2023/06/01 19:51:53;;;;;;;11.23;5.00;;;;;;;;;;8406953;28;20055;-88
2023/06/01 19:55:59;;;;;;;21.48;7.15;;;;;;;;;;8418135;28;20048;-85
2023/06/01 20:00:02;;;;;;;12.57;5.38;;;;;;;;;;8399007;22;20147;-88
2023/06/01 20:04:05;;;;;;;33.13;11.73;;;;;;;;;;8386954;28;20051;-87
2023/06/01 20:08:11;;;;;;;18.13;6.28;;;;;;;;;;8399985;28;20049;-86
2023/06/01 20:12:17;;;;;;;30.70;9.30;;;;;;;;;;8401732;28;20033;-88
2023/06/01 20:16:20;;;;;;;13.52;7.78;;;;;;;;;;8401300;28;20130;-87
2023/06/01 20:20:23;;;;;;;49.55;15.70;;;;;;;;;;8401448;28;20123;-87
